Česky Dansk Deutsch English Español Suomi Français Magyar Italiano Nederlands norsk Polski Português svenska Türkçe

 

Het Weer

Stavropol / Shpakovskoye (Rusland)

08:00, 19 augustus 2016 (GMT)

NWNNE
WE
SWSSE
Home            
Stavropol / Shpakovskoye Mineral'Nye Vody Elista Krasnodar Nalchik Adler Rostov-Na-Donu Anapa / Vitiazevo Volgograd Muhrani Donetsk Tbilisi Astrakhan Trabzon Kars Zaporizhzhia / Mokraya Erzurum Yerevan Simferopol Gyanca Airport Samsun / Carsamba Samsun Erzincan

Om een weerknop op uw website of weblog te plaatsen, copieer onderstaande code en plak die in uw pagina. In het eerste vakje staat HTML-code, in het tweede vakje UBB-code.


Add to Google

Details

Wind speed:2 bf, 5.8 kn, 3 m/s, 6.7 miles/h, 10.8 km/h
Wind direction:E, 100°
Visibility:Greater than 10000 m, 10 km, 32800 ft, 6.2 miles
Clouds:CAVOC
Temperature:27°C, 81°F
Gefühlte Temperatur:28°C, 82°F
Dew-point:16°C, 61°F
Atmospheric pressure:1015 hPa, 761.3 mmHg, 29.97 inHg, 1.002 atm
Relative humidity:51.0 %
METAR:URMT 190800Z 10003MPS CAVOK 27/16 Q1015 R07/010070 NOSIG RMK QFE721

Snelkoppelingen

Actuele weersinformatie van de hele wereld. Voeg locaties toe met het plus (+) symbool. Deze snelkoppelingen kunnen worden toegevoegd aan Google.

Lid van de Technetium groep

website free tracking
StatCounter NetStat W3C Validator

01-10-2022 11:32:31
astro.technetium.be money.technetium.be phote.technetium.be tafeltennistafel.technetium.be www.ligfiets.net